Latest Weather Observations for Kanagulk

IDV60801

Issued at 4:42 pm EDT Wednesday 19 December 2018 (issued every 10 minutes, with the page automatically refreshed every 10 minutes)

About weather observations | Map of weather stations | Latest weather observations for VIC | Other Formats
Station Details ID: 079097 Name: KANAGULK Lat: -37.12 Lon: 141.80 Height: 188.8 m
Data from the previous 72 hours. | See also: Recent months at Kanagulk
Date/Time
EDT
Temp
°C
App
Temp
°C
Dew
Point
°C
Rel
Hum
%
Delta-T
°C
Wind Press
QNH
hPa
Press
MSL
hPa
Rain since
9am
mm
Dir  Spd
km/h
Gust
km/h
Spd
kts
Gust
kts
19/04:30pm 23.7 24.8 17.0 66 4.2 NE 7 11 4 6 1009.2 1008.7 1.6
19/04:00pm 22.9 24.2 18.4 76 2.9 ENE 9 13 5 7 1009.4 1008.9 1.6
19/03:30pm 21.3 22.4 18.9 86 1.5 NE 11 17 6 9 1009.7 1009.2 1.6
19/03:00pm 21.6 22.7 16.6 73 3.1 S 6 13 3 7 1010.7 1010.2 0.8
19/02:30pm 22.8 25.3 17.3 71 3.4 CALM 0 6 0 3 1011.2 1010.7 0.6
19/02:00pm 21.2 23.4 19.5 90 1.1 SSE 7 11 4 6 1011.4 1010.9 0.6
19/01:45pm 20.7 22.1 17.9 84 1.7 NNE 7 20 4 11 1010.7 1010.2 0.4
19/01:30pm 21.9 22.7 16.4 71 3.4 WNW 7 11 4 6 1013.0 1012.5 0.2
19/01:00pm 22.8 23.1 14.6 60 4.9 WNW 6 7 3 4 1012.0 1011.5 0.0
19/12:30pm 22.9 21.5 13.4 55 5.5 W 13 20 7 11 1012.8 1012.3 0.0
19/12:00pm 23.9 23.0 13.7 53 6.0 WNW 11 20 6 11 1012.6 1012.1 0.0
19/11:30am 24.1 23.1 11.1 44 7.3 NW 7 11 4 6 1011.9 1011.4 0.0
19/11:00am 24.9 23.8 10.0 39 8.3 N 6 13 3 7 1011.5 1011.0 0.0
19/10:30am 23.2 21.4 10.9 46 6.9 NE 11 15 6 8 1011.3 1010.8 0.0
19/10:00am 22.2 22.1 13.3 57 5.2 E 6 11 3 6 1011.6 1011.1 0.0
19/09:30am 21.3 21.1 13.7 62 4.4 SE 7 11 4 6 1011.8 1011.3 0.0
19/09:00am 19.7 20.7 15.4 76 2.6 SE 4 7 2 4 1012.7 1012.2 0.0
19/08:30am 17.5 17.7 15.7 89 1.1 SSE 9 11 5 6 1012.6 1012.1 -
19/08:00am 16.4 17.7 16.2 99 0.1 E 4 9 2 5 1012.0 1011.5 -
19/07:30am 16.0 17.9 15.8 99 0.1 CALM 0 0 0 0 1012.6 1012.1 -
19/07:00am 15.3 17.0 15.1 99 0.1 CALM 0 0 0 0 1012.5 1012.0 -
19/06:30am 15.1 16.7 14.9 99 0.1 CALM 0 0 0 0 1011.7 1011.2 -
19/06:00am 15.1 16.7 14.9 99 0.1 CALM 0 0 0 0 1011.6 1011.1 -
19/05:30am 15.2 15.7 15.0 99 0.1 SW 6 9 3 5 1011.5 1011.0 -
19/05:00am 15.3 - 15.0 98 0.2 - - - - - 1011.1 1010.6 -
19/02:00am 16.0 15.9 14.9 93 0.6 SSE 9 11 5 6 1012.9 1012.4 0.0
19/01:30am 16.3 16.0 14.5 89 1.0 SSE 9 11 5 6 1013.6 1013.1 0.0
19/01:00am 16.6 15.9 14.4 87 1.3 SSE 11 15 6 8 1013.7 1013.2 0.0
19/12:30am 17.0 16.4 14.5 85 1.4 SSE 11 15 6 8 1014.2 1013.7 0.0
19/12:00am 17.2 16.6 14.7 85 1.5 SSE 11 13 6 7 1014.5 1014.0 0.0
 
Date/Time
EDT
Temp
°C
App
Temp
°C
Dew
Point
°C
Rel
Hum
%
Delta-T
°C
Wind Press
QNH
hPa
Press
MSL
hPa
Rain since
9am
mm
Dir  Spd
km/h
Gust
km/h
Spd
kts
Gust
kts
18/11:30pm 17.1 17.3 14.7 86 1.4 SE 7 9 4 5 1014.7 1014.2 0.0
18/11:00pm 17.0 16.7 14.5 85 1.4 SSE 9 13 5 7 1014.5 1014.0 0.0
18/10:30pm 18.0 17.4 14.7 81 1.9 SSE 11 15 6 8 1014.7 1014.2 0.0
18/10:00pm 18.5 16.8 14.6 78 2.3 S 17 20 9 11 1014.9 1014.4 0.0
18/09:30pm 19.0 18.7 14.3 74 2.7 S 9 13 5 7 1015.2 1014.7 0.0
18/09:00pm 19.5 18.7 14.1 71 3.1 SSE 11 17 6 9 1014.7 1014.2 0.0
18/08:30pm 20.1 18.6 14.2 69 3.4 SSE 15 20 8 11 1014.3 1013.8 0.0
18/08:00pm 21.0 18.9 13.7 63 4.2 SSE 17 20 9 11 1013.9 1013.4 0.0
18/07:30pm 22.0 20.8 11.7 52 5.8 S 9 11 5 6 1014.5 1014.0 0.0
18/07:00pm 22.3 21.0 11.1 49 6.3 SE 9 13 5 7 1014.2 1013.7 0.0
18/06:30pm 22.4 20.9 10.5 47 6.6 SSE 9 15 5 8 1013.9 1013.4 0.0
18/06:00pm 22.2 19.9 10.4 47 6.5 SE 13 20 7 11 1013.5 1012.9 0.0
18/05:30pm 22.7 19.1 9.8 44 7.1 SSE 19 32 10 17 1013.6 1013.1 0.0
18/05:00pm 22.8 18.4 8.9 41 7.5 SSE 22 30 12 16 1013.2 1012.6 0.0
18/04:30pm 22.4 17.8 9.6 44 7.0 SSE 24 32 13 17 1013.5 1012.9 0.0
18/04:00pm 22.3 19.6 10.5 47 6.5 SSE 15 20 8 11 1014.4 1013.9 0.0
18/03:30pm 22.3 20.7 10.1 46 6.7 SSW 9 11 5 6 1014.7 1014.2 0.0
18/03:00pm 22.8 20.4 8.5 40 7.6 S 11 17 6 9 1015.0 1014.5 0.0
18/02:30pm 22.8 19.3 8.9 41 7.5 S 17 24 9 13 1014.9 1014.4 0.0
18/02:00pm 23.4 19.8 9.8 42 7.5 SSE 19 26 10 14 1014.7 1014.2 0.0
18/01:30pm 23.0 19.7 9.4 42 7.4 SSE 17 20 9 11 1014.8 1014.3 0.0
18/01:00pm 23.5 20.2 9.5 41 7.7 SE 17 24 9 13 1014.6 1014.1 0.0
18/12:30pm 22.3 19.1 9.8 45 6.8 SSE 17 24 9 13 1015.1 1014.6 0.0
18/12:00pm 21.9 18.5 10.4 48 6.3 SSE 19 26 10 14 1015.4 1014.9 0.0
18/11:30am 20.9 17.4 11.0 53 5.5 SSE 20 28 11 15 1015.8 1015.3 0.0
18/11:00am 19.4 16.1 11.7 61 4.3 SSE 20 28 11 15 1016.0 1015.5 0.0
18/10:30am 18.9 15.3 11.9 64 3.9 SSE 22 30 12 16 1015.9 1015.4 0.0
18/10:00am 18.7 15.0 12.7 68 3.4 S 24 33 13 18 1016.2 1015.7 0.0
18/09:30am 16.9 13.9 12.6 76 2.4 S 20 30 11 16 1016.6 1016.1 0.0
18/09:00am 16.1 13.2 13.0 82 1.7 SSE 20 26 11 14 1016.5 1016.0 0.0
18/08:30am 14.9 11.8 13.3 90 0.9 SSE 22 28 12 15 1016.0 1015.5 0.0
18/08:00am 14.4 11.9 14.1 98 0.2 SSE 20 28 11 15 1016.2 1015.7 0.0
18/07:30am 13.4 10.2 13.2 99 0.1 SSE 22 28 12 15 1015.8 1015.3 0.0
18/07:00am 12.6 10.2 12.6 100 0.0 S 17 22 9 12 1015.3 1014.8 0.0
18/06:30am 11.7 9.8 11.7 100 0.0 SSE 13 17 7 9 1014.8 1014.3 0.0
18/06:00am 11.6 8.9 11.6 100 0.0 SSE 17 24 9 13 1014.6 1014.1 0.0
18/05:30am 11.7 9.4 11.7 100 0.0 SSE 15 20 8 11 1014.2 1013.7 0.0
18/05:00am 11.7 9.4 11.7 100 0.0 SSE 15 20 8 11 1014.0 1013.5 0.0
18/04:30am 12.2 9.3 12.2 100 0.0 SSE 19 26 10 14 1014.0 1013.5 0.0
18/04:00am 12.4 9.5 12.4 100 0.0 SSE 19 24 10 13 1013.9 1013.4 0.0
18/03:30am 12.6 10.6 12.6 100 0.0 S 15 20 8 11 1014.0 1013.5 0.0
18/03:00am 12.5 10.8 12.5 100 0.0 S 13 19 7 10 1013.7 1013.2 0.0
18/02:30am 12.6 10.9 12.6 100 0.0 S 13 17 7 9 1013.8 1013.3 0.0
18/02:00am 12.7 10.7 12.7 100 0.0 SSE 15 20 8 11 1013.8 1013.3 0.0
18/01:30am 13.0 10.1 12.8 99 0.1 SSE 20 30 11 16 1014.1 1013.6 0.0
18/01:00am 13.4 10.2 13.2 99 0.1 SSE 22 30 12 16 1014.0 1013.5 0.0
18/12:30am 13.7 9.9 13.5 99 0.1 SSE 26 33 14 18 1014.7 1014.2 0.0
18/12:00am 13.8 12.1 13.6 99 0.1 SSE 15 22 8 12 1014.9 1014.4 0.0
 
Date/Time
EDT
Temp
°C
App
Temp
°C
Dew
Point
°C
Rel
Hum
%
Delta-T
°C
Wind Press
QNH
hPa
Press
MSL
hPa
Rain since
9am
mm
Dir  Spd
km/h
Gust
km/h
Spd
kts
Gust
kts
17/11:30pm 14.4 12.0 13.8 96 0.3 SSE 19 26 10 14 1014.9 1014.4 0.0
17/11:00pm 15.0 12.7 14.0 94 0.6 SSE 19 24 10 13 1015.2 1014.7 0.0
17/10:30pm 15.3 12.8 14.0 92 0.7 SE 20 30 11 16 1015.3 1014.8 0.0
17/10:00pm 15.9 13.5 13.9 88 1.1 SE 19 30 10 16 1015.4 1014.9 0.0
17/09:30pm 16.5 13.9 13.8 84 1.5 SSE 20 28 11 15 1015.2 1014.7 0.0
17/09:00pm 16.9 14.2 13.6 81 1.9 SSE 20 28 11 15 1015.0 1014.5 0.0
17/08:30pm 17.6 13.8 13.7 78 2.2 SSE 26 33 14 18 1014.5 1014.0 0.0
17/08:00pm 18.7 15.8 14.0 74 2.7 SSE 22 32 12 17 1014.1 1013.6 0.0
17/07:30pm 19.9 17.0 14.0 69 3.4 SSE 22 33 12 18 1013.4 1012.8 0.0
17/07:00pm 20.7 18.2 14.1 66 3.9 SSE 20 30 11 16 1013.5 1012.9 0.0
17/06:30pm 21.3 18.3 13.7 62 4.4 SSE 22 32 12 17 1013.5 1012.9 0.0
17/06:00pm 21.4 18.2 14.3 64 4.2 SSE 24 32 13 17 1013.5 1012.9 0.0
17/05:30pm 21.4 18.5 14.1 63 4.3 S 22 30 12 16 1013.5 1012.9 0.0
17/05:00pm 21.8 19.9 14.2 62 4.5 SSE 17 24 9 13 1013.6 1013.1 0.0
17/04:30pm 21.9 19.6 14.0 61 4.6 SSE 19 28 10 15 1013.7 1013.2 0.0
17/04:00pm 22.7 20.2 14.0 58 5.1 S 20 28 11 15 1013.6 1013.1 0.0
17/03:30pm 22.4 20.4 14.0 59 4.9 SSE 17 26 9 14 1013.6 1013.1 0.0
17/03:00pm 22.5 20.5 13.8 58 5.1 SSE 17 24 9 13 1013.5 1012.9 0.0
17/02:30pm 23.0 21.5 14.3 58 5.2 S 15 24 8 13 1013.3 1012.7 0.0
17/02:00pm 21.4 19.9 14.1 63 4.3 SSW 15 22 8 12 1013.5 1012.9 0.0
17/01:30pm 21.2 19.3 13.1 60 4.7 SSE 15 20 8 11 1013.6 1013.1 0.0
17/01:00pm 20.5 19.2 13.7 65 3.9 S 13 20 7 11 1013.4 1012.8 0.0
17/12:30pm 21.3 18.8 13.5 61 4.5 S 19 28 10 15 1013.2 1012.6 0.0
17/12:00pm 20.1 17.5 13.3 65 3.9 SSE 19 24 10 13 1013.2 1012.6 0.0
17/11:30am 19.4 16.9 13.6 69 3.3 S 19 26 10 14 1013.4 1012.8 0.0
17/11:00am 19.0 16.1 13.0 68 3.4 S 20 28 11 15 1013.3 1012.7 0.0
17/10:30am 19.4 16.6 13.3 68 3.5 S 20 32 11 17 1013.4 1012.8 0.0
17/10:00am 18.5 16.2 14.0 75 2.6 S 19 24 10 13 1013.6 1013.1 0.0
17/09:30am 17.4 14.8 13.7 79 2.1 SSE 20 26 11 14 1013.4 1012.8 0.0
17/09:00am 16.5 14.7 14.5 88 1.2 S 17 24 9 13 1012.8 1012.3 0.0
17/08:30am 16.9 14.8 14.7 87 1.3 SSE 19 24 10 13 1012.4 1011.9 0.0
17/08:00am 15.6 13.6 15.4 99 0.1 S 20 30 11 16 1012.3 1011.8 0.0
17/07:30am 15.5 14.5 15.5 100 0.0 S 15 20 8 11 1011.6 1011.1 0.0
17/07:00am 15.1 14.3 15.1 100 0.0 SSW 13 20 7 11 1011.4 1010.9 0.0
17/06:30am 15.2 15.6 15.2 100 0.0 SSW 7 11 4 6 1011.1 1010.6 0.0
17/06:00am 15.3 15.6 15.1 99 0.1 SW 7 11 4 6 1010.8 1010.3 0.0
17/05:30am 15.2 15.7 15.0 99 0.1 SSW 6 9 3 5 1010.4 1009.9 0.0
17/05:00am 15.1 15.6 14.9 99 0.1 SSW 6 9 3 5 1010.1 1009.6 0.0
17/04:30am 15.0 16.2 14.8 99 0.1 SSW 2 9 1 5 1010.1 1009.6 0.0
17/04:00am 14.7 15.0 14.5 99 0.1 S 6 9 3 5 1009.8 1009.3 0.0
17/03:30am 14.6 14.3 14.4 99 0.1 S 9 13 5 7 1010.0 1009.5 0.0
17/03:00am 15.0 14.4 14.5 97 0.3 S 11 15 6 8 1010.1 1009.6 0.0
17/02:30am 15.0 14.0 14.5 97 0.3 SSW 13 19 7 10 1010.2 1009.7 0.0
17/02:00am 14.8 13.4 14.6 99 0.1 SSW 15 22 8 12 1010.3 1009.8 0.0
17/01:30am 14.8 14.2 14.6 99 0.1 SSW 11 15 6 8 1010.2 1009.7 0.0
17/01:00am 14.8 13.8 14.6 99 0.1 SSW 13 22 7 12 1009.8 1009.3 0.0
17/12:30am 14.9 14.3 13.6 92 0.7 SSW 9 15 5 8 1009.9 1009.4 0.0
17/12:00am 15.7 14.5 12.8 83 1.6 SW 11 17 6 9 1009.8 1009.3 0.0
 
Date/Time
EDT
Temp
°C
App
Temp
°C
Dew
Point
°C
Rel
Hum
%
Delta-T
°C
Wind Press
QNH
hPa
Press
MSL
hPa
Rain since
9am
mm
Dir  Spd
km/h
Gust
km/h
Spd
kts
Gust
kts
16/11:30pm 16.3 15.3 12.3 77 2.2 SSW 9 15 5 8 1009.5 1009.0 0.0
16/11:00pm 17.0 15.6 12.1 73 2.7 SSW 11 20 6 11 1009.2 1008.7 0.0
16/10:30pm 17.7 16.0 12.6 72 2.9 SSW 13 24 7 13 1009.1 1008.6 0.0
16/10:00pm 18.9 17.9 14.6 76 2.5 SSW 13 20 7 11 1008.5 1007.9 0.0
16/09:30pm 19.9 17.6 14.0 69 3.4 S 19 26 10 14 1007.8 1007.2 0.0
16/09:00pm 21.3 20.0 14.9 67 3.8 SSW 15 22 8 12 1007.3 1006.8 0.0
16/08:30pm 22.3 20.6 12.3 53 5.7 SW 13 24 7 13 1007.0 1006.5 0.0
16/08:00pm 23.8 21.8 10.1 42 7.6 SW 11 17 6 9 1006.4 1005.9 0.0
16/07:30pm 25.0 22.8 10.8 41 8.0 SSW 13 20 7 11 1005.9 1005.4 0.0
16/07:00pm 24.3 22.5 10.9 43 7.6 WSW 11 22 6 12 1005.7 1005.2 0.0
16/06:30pm 25.6 22.4 9.8 37 8.8 S 17 22 9 12 1005.2 1004.7 0.0
16/06:00pm 26.4 24.4 10.1 36 9.2 SW 11 19 6 10 1004.9 1004.4 0.0
16/05:30pm 26.0 22.9 10.2 37 8.9 SSW 17 26 9 14 1004.8 1004.3 0.0
16/05:00pm 26.1 24.4 11.1 39 8.6 WSW 11 24 6 13 1004.8 1004.3 0.0

Other Formats:

Comma delimited format used in spreadsheet applications
http://www.bom.gov.au/fwo/IDV60801/IDV60801.95827.axf

JavaScript Object Notation format (JSON) in row-major order
http://www.bom.gov.au/fwo/IDV60801/IDV60801.95827.json